sensor_id;sensor_type;location;lat;lon;timestamp;P1;durP1;ratioP1;P2;durP2;ratioP2
41761;SDS011;27441;50.860;0.258;2023-05-10T00:00:33;0.00;;;0.00;;
41761;SDS011;27441;50.860;0.258;2023-05-10T00:03:00;0.00;;;0.00;;
41761;SDS011;27441;50.860;0.258;2023-05-10T00:05:26;0.00;;;0.00;;
41761;SDS011;27441;50.860;0.258;2023-05-10T00:07:52;0.00;;;0.00;;
41761;SDS011;27441;50.860;0.258;2023-05-10T00:10:18;0.00;;;0.00;;
41761;SDS011;27441;50.860;0.258;2023-05-10T00:12:44;0.00;;;0.00;;
41761;SDS011;27441;50.860;0.258;2023-05-10T00:15:10;0.00;;;0.00;;
41761;SDS011;27441;50.860;0.258;2023-05-10T00:17:36;0.00;;;0.00;;
41761;SDS011;27441;50.860;0.258;2023-05-10T00:20:02;0.00;;;0.00;;
41761;SDS011;27441;50.860;0.258;2023-05-10T00:22:30;0.00;;;0.00;;
41761;SDS011;27441;50.860;0.258;2023-05-10T00:24:56;0.00;;;0.00;;
41761;SDS011;27441;50.860;0.258;2023-05-10T00:27:23;0.00;;;0.00;;
41761;SDS011;27441;50.860;0.258;2023-05-10T00:29:49;0.00;;;0.00;;
41761;SDS011;27441;50.860;0.258;2023-05-10T00:32:15;0.00;;;0.00;;
41761;SDS011;27441;50.860;0.258;2023-05-10T00:34:41;0.10;;;0.10;;
41761;SDS011;27441;50.860;0.258;2023-05-10T00:37:07;0.00;;;0.00;;
41761;SDS011;27441;50.860;0.258;2023-05-10T00:39:33;0.00;;;0.00;;
41761;SDS011;27441;50.860;0.258;2023-05-10T00:41:59;0.00;;;0.00;;
41761;SDS011;27441;50.860;0.258;2023-05-10T00:44:26;0.00;;;0.00;;
41761;SDS011;27441;50.860;0.258;2023-05-10T00:46:52;0.00;;;0.00;;
41761;SDS011;27441;50.860;0.258;2023-05-10T00:49:18;0.00;;;0.00;;
41761;SDS011;27441;50.860;0.258;2023-05-10T00:51:45;0.00;;;0.00;;
41761;SDS011;27441;50.860;0.258;2023-05-10T00:54:12;0.00;;;0.00;;
41761;SDS011;27441;50.860;0.258;2023-05-10T00:56:39;0.10;;;0.10;;
41761;SDS011;27441;50.860;0.258;2023-05-10T00:59:05;0.00;;;0.00;;
41761;SDS011;27441;50.860;0.258;2023-05-10T01:01:31;0.00;;;0.00;;
41761;SDS011;27441;50.860;0.258;2023-05-10T01:03:57;0.00;;;0.00;;
41761;SDS011;27441;50.860;0.258;2023-05-10T01:06:24;0.00;;;0.00;;
41761;SDS011;27441;50.860;0.258;2023-05-10T01:08:50;0.00;;;0.00;;
41761;SDS011;27441;50.860;0.258;2023-05-10T01:11:16;0.00;;;0.00;;
41761;SDS011;27441;50.860;0.258;2023-05-10T01:13:42;0.00;;;0.00;;
41761;SDS011;27441;50.860;0.258;2023-05-10T01:16:09;0.00;;;0.00;;
41761;SDS011;27441;50.860;0.258;2023-05-10T01:18:38;0.00;;;0.00;;
41761;SDS011;27441;50.860;0.258;2023-05-10T01:23:45;0.00;;;0.00;;
41761;SDS011;27441;50.860;0.258;2023-05-10T01:26:25;0.00;;;0.00;;
41761;SDS011;27441;50.860;0.258;2023-05-10T01:29:11;0.00;;;0.00;;
41761;SDS011;27441;50.860;0.258;2023-05-10T01:34:25;0.00;;;0.00;;
41761;SDS011;27441;50.860;0.258;2023-05-10T01:36:55;0.00;;;0.00;;
41761;SDS011;27441;50.860;0.258;2023-05-10T01:39:24;0.00;;;0.00;;
41761;SDS011;27441;50.860;0.258;2023-05-10T01:41:55;0.00;;;0.00;;
41761;SDS011;27441;50.860;0.258;2023-05-10T01:49:34;0.00;;;0.00;;
41761;SDS011;27441;50.860;0.258;2023-05-10T01:52:09;0.00;;;0.00;;
41761;SDS011;27441;50.860;0.258;2023-05-10T01:54:38;0.00;;;0.00;;
41761;SDS011;27441;50.860;0.258;2023-05-10T01:57:05;0.00;;;0.00;;
41761;SDS011;27441;50.860;0.258;2023-05-10T01:59:34;0.00;;;0.00;;
41761;SDS011;27441;50.860;0.258;2023-05-10T02:02:06;0.00;;;0.00;;
41761;SDS011;27441;50.860;0.258;2023-05-10T02:04:36;0.00;;;0.00;;
41761;SDS011;27441;50.860;0.258;2023-05-10T02:07:03;0.00;;;0.00;;
41761;SDS011;27441;50.860;0.258;2023-05-10T02:09:30;0.00;;;0.00;;
41761;SDS011;27441;50.860;0.258;2023-05-10T02:11:58;0.00;;;0.00;;
41761;SDS011;27441;50.860;0.258;2023-05-10T02:14:26;0.00;;;0.00;;
41761;SDS011;27441;50.860;0.258;2023-05-10T02:16:52;0.10;;;0.10;;
41761;SDS011;27441;50.860;0.258;2023-05-10T02:19:19;0.60;;;0.60;;
41761;SDS011;27441;50.860;0.258;2023-05-10T02:21:46;0.30;;;0.30;;
41761;SDS011;27441;50.860;0.258;2023-05-10T02:24:12;0.10;;;0.10;;
41761;SDS011;27441;50.860;0.258;2023-05-10T02:26:38;0.10;;;0.10;;
41761;SDS011;27441;50.860;0.258;2023-05-10T02:29:05;1.10;;;1.10;;
41761;SDS011;27441;50.860;0.258;2023-05-10T02:31:32;15.45;;;8.68;;
41761;SDS011;27441;50.860;0.258;2023-05-10T02:33:59;0.03;;;0.03;;
41761;SDS011;27441;50.860;0.258;2023-05-10T02:36:26;0.00;;;0.00;;
41761;SDS011;27441;50.860;0.258;2023-05-10T02:38:52;2.27;;;2.17;;
41761;SDS011;27441;50.860;0.258;2023-05-10T02:41:19;0.80;;;0.80;;
41761;SDS011;27441;50.860;0.258;2023-05-10T02:43:47;0.00;;;0.00;;
41761;SDS011;27441;50.860;0.258;2023-05-10T02:46:15;0.00;;;0.00;;
41761;SDS011;27441;50.860;0.258;2023-05-10T02:48:41;0.57;;;0.40;;
41761;SDS011;27441;50.860;0.258;2023-05-10T02:51:07;3.20;;;2.93;;
41761;SDS011;27441;50.860;0.258;2023-05-10T02:56:00;7.60;;;7.00;;
41761;SDS011;27441;50.860;0.258;2023-05-10T02:58:28;0.20;;;0.20;;
41761;SDS011;27441;50.860;0.258;2023-05-10T03:00:54;3.40;;;3.20;;
41761;SDS011;27441;50.860;0.258;2023-05-10T03:03:21;0.00;;;0.00;;
41761;SDS011;27441;50.860;0.258;2023-05-10T03:05:47;0.47;;;0.47;;
41761;SDS011;27441;50.860;0.258;2023-05-10T03:08:13;0.10;;;0.10;;
41761;SDS011;27441;50.860;0.258;2023-05-10T03:10:47;0.00;;;0.00;;
41761;SDS011;27441;50.860;0.258;2023-05-10T03:13:20;0.10;;;0.10;;
41761;SDS011;27441;50.860;0.258;2023-05-10T03:18:21;0.98;;;0.98;;
41761;SDS011;27441;50.860;0.258;2023-05-10T03:20:48;2.10;;;2.00;;
41761;SDS011;27441;50.860;0.258;2023-05-10T03:23:22;0.00;;;0.00;;
41761;SDS011;27441;50.860;0.258;2023-05-10T03:25:51;0.00;;;0.00;;
41761;SDS011;27441;50.860;0.258;2023-05-10T03:28:17;0.00;;;0.00;;
41761;SDS011;27441;50.860;0.258;2023-05-10T03:30:44;0.00;;;0.00;;
41761;SDS011;27441;50.860;0.258;2023-05-10T03:33:10;0.65;;;0.50;;
41761;SDS011;27441;50.860;0.258;2023-05-10T03:35:37;2.40;;;2.20;;
41761;SDS011;27441;50.860;0.258;2023-05-10T03:38:04;0.00;;;0.00;;
41761;SDS011;27441;50.860;0.258;2023-05-10T03:40:30;0.10;;;0.10;;
41761;SDS011;27441;50.860;0.258;2023-05-10T03:42:59;0.00;;;0.00;;
41761;SDS011;27441;50.860;0.258;2023-05-10T03:45:26;0.00;;;0.00;;
41761;SDS011;27441;50.860;0.258;2023-05-10T03:47:52;1.20;;;1.10;;
41761;SDS011;27441;50.860;0.258;2023-05-10T03:50:18;1.27;;;0.93;;
41761;SDS011;27441;50.860;0.258;2023-05-10T03:52:45;0.85;;;0.85;;
41761;SDS011;27441;50.860;0.258;2023-05-10T03:55:11;0.00;;;0.00;;
41761;SDS011;27441;50.860;0.258;2023-05-10T03:57:37;0.00;;;0.00;;
41761;SDS011;27441;50.860;0.258;2023-05-10T04:00:03;0.00;;;0.00;;
41761;SDS011;27441;50.860;0.258;2023-05-10T04:04:56;0.00;;;0.00;;
41761;SDS011;27441;50.860;0.258;2023-05-10T04:07:22;0.00;;;0.00;;
41761;SDS011;27441;50.860;0.258;2023-05-10T04:12:15;0.00;;;0.00;;
41761;SDS011;27441;50.860;0.258;2023-05-10T04:14:41;0.00;;;0.00;;
41761;SDS011;27441;50.860;0.258;2023-05-10T04:17:07;0.00;;;0.00;;
41761;SDS011;27441;50.860;0.258;2023-05-10T04:19:33;0.00;;;0.00;;
41761;SDS011;27441;50.860;0.258;2023-05-10T04:21:59;0.00;;;0.00;;
41761;SDS011;27441;50.860;0.258;2023-05-10T04:24:25;0.00;;;0.00;;
41761;SDS011;27441;50.860;0.258;2023-05-10T04:26:51;0.00;;;0.00;;
41761;SDS011;27441;50.860;0.258;2023-05-10T04:29:17;0.80;;;0.60;;
41761;SDS011;27441;50.860;0.258;2023-05-10T04:31:43;0.00;;;0.00;;
41761;SDS011;27441;50.860;0.258;2023-05-10T04:34:09;0.00;;;0.00;;
41761;SDS011;27441;50.860;0.258;2023-05-10T04:36:35;0.00;;;0.00;;
41761;SDS011;27441;50.860;0.258;2023-05-10T04:39:02;0.00;;;0.00;;
41761;SDS011;27441;50.860;0.258;2023-05-10T04:41:28;0.00;;;0.00;;
41761;SDS011;27441;50.860;0.258;2023-05-10T04:43:54;0.00;;;0.00;;
41761;SDS011;27441;50.860;0.258;2023-05-10T04:46:20;0.00;;;0.00;;
41761;SDS011;27441;50.860;0.258;2023-05-10T04:48:46;0.03;;;0.03;;
41761;SDS011;27441;50.860;0.258;2023-05-10T04:51:13;0.40;;;0.40;;
41761;SDS011;27441;50.860;0.258;2023-05-10T04:53:39;0.00;;;0.00;;
41761;SDS011;27441;50.860;0.258;2023-05-10T04:56:05;0.00;;;0.00;;
41761;SDS011;27441;50.860;0.258;2023-05-10T04:58:31;0.00;;;0.00;;
41761;SDS011;27441;50.860;0.258;2023-05-10T05:01:04;0.00;;;0.00;;
41761;SDS011;27441;50.860;0.258;2023-05-10T05:03:30;0.00;;;0.00;;
41761;SDS011;27441;50.860;0.258;2023-05-10T05:05:57;0.00;;;0.00;;
41761;SDS011;27441;50.860;0.258;2023-05-10T05:08:23;0.10;;;0.10;;
41761;SDS011;27441;50.860;0.258;2023-05-10T05:10:49;0.00;;;0.00;;
41761;SDS011;27441;50.860;0.258;2023-05-10T05:18:07;0.00;;;0.00;;
41761;SDS011;27441;50.860;0.258;2023-05-10T05:20:33;0.00;;;0.00;;
41761;SDS011;27441;50.860;0.258;2023-05-10T05:22:59;0.00;;;0.00;;
41761;SDS011;27441;50.860;0.258;2023-05-10T05:25:26;0.00;;;0.00;;
41761;SDS011;27441;50.860;0.258;2023-05-10T05:27:52;0.00;;;0.00;;
41761;SDS011;27441;50.860;0.258;2023-05-10T05:30:18;0.00;;;0.00;;
41761;SDS011;27441;50.860;0.258;2023-05-10T05:32:44;0.00;;;0.00;;
41761;SDS011;27441;50.860;0.258;2023-05-10T05:35:12;0.00;;;0.00;;
41761;SDS011;27441;50.860;0.258;2023-05-10T05:37:38;0.00;;;0.00;;
41761;SDS011;27441;50.860;0.258;2023-05-10T05:40:04;0.00;;;0.00;;
41761;SDS011;27441;50.860;0.258;2023-05-10T05:42:30;0.10;;;0.10;;
41761;SDS011;27441;50.860;0.258;2023-05-10T05:44:57;0.00;;;0.00;;
41761;SDS011;27441;50.860;0.258;2023-05-10T05:47:23;0.00;;;0.00;;
41761;SDS011;27441;50.860;0.258;2023-05-10T05:49:49;0.00;;;0.00;;
41761;SDS011;27441;50.860;0.258;2023-05-10T05:52:15;0.00;;;0.00;;
41761;SDS011;27441;50.860;0.258;2023-05-10T05:54:41;0.00;;;0.00;;
41761;SDS011;27441;50.860;0.258;2023-05-10T05:57:07;0.00;;;0.00;;
41761;SDS011;27441;50.860;0.258;2023-05-10T05:59:33;0.00;;;0.00;;
41761;SDS011;27441;50.860;0.258;2023-05-10T06:02:00;0.00;;;0.00;;
41761;SDS011;27441;50.860;0.258;2023-05-10T06:04:26;0.00;;;0.00;;
41761;SDS011;27441;50.860;0.258;2023-05-10T06:06:52;0.00;;;0.00;;
41761;SDS011;27441;50.860;0.258;2023-05-10T06:09:18;0.00;;;0.00;;
41761;SDS011;27441;50.860;0.258;2023-05-10T06:11:44;0.00;;;0.00;;
41761;SDS011;27441;50.860;0.258;2023-05-10T06:16:36;0.00;;;0.00;;
41761;SDS011;27441;50.860;0.258;2023-05-10T06:19:02;0.00;;;0.00;;
41761;SDS011;27441;50.860;0.258;2023-05-10T06:21:28;0.43;;;0.43;;
41761;SDS011;27441;50.860;0.258;2023-05-10T06:23:55;0.00;;;0.00;;
41761;SDS011;27441;50.860;0.258;2023-05-10T06:26:21;0.00;;;0.00;;
41761;SDS011;27441;50.860;0.258;2023-05-10T06:28:47;0.00;;;0.00;;
41761;SDS011;27441;50.860;0.258;2023-05-10T06:33:39;0.00;;;0.00;;
41761;SDS011;27441;50.860;0.258;2023-05-10T06:36:05;0.00;;;0.00;;
41761;SDS011;27441;50.860;0.258;2023-05-10T06:38:31;0.00;;;0.00;;
41761;SDS011;27441;50.860;0.258;2023-05-10T06:40:58;0.10;;;0.10;;
41761;SDS011;27441;50.860;0.258;2023-05-10T06:43:24;0.20;;;0.20;;
41761;SDS011;27441;50.860;0.258;2023-05-10T06:45:51;1.30;;;1.30;;
41761;SDS011;27441;50.860;0.258;2023-05-10T06:48:17;1.60;;;1.50;;
41761;SDS011;27441;50.860;0.258;2023-05-10T06:50:43;0.77;;;0.77;;
41761;SDS011;27441;50.860;0.258;2023-05-10T06:58:02;0.00;;;0.00;;
41761;SDS011;27441;50.860;0.258;2023-05-10T07:00:29;0.00;;;0.00;;
41761;SDS011;27441;50.860;0.258;2023-05-10T07:02:55;0.00;;;0.00;;
41761;SDS011;27441;50.860;0.258;2023-05-10T07:05:21;0.00;;;0.00;;
41761;SDS011;27441;50.860;0.258;2023-05-10T07:07:47;0.00;;;0.00;;
41761;SDS011;27441;50.860;0.258;2023-05-10T07:10:13;0.30;;;0.30;;
41761;SDS011;27441;50.860;0.258;2023-05-10T07:12:39;3.80;;;3.60;;
41761;SDS011;27441;50.860;0.258;2023-05-10T07:15:06;0.00;;;0.00;;
41761;SDS011;27441;50.860;0.258;2023-05-10T07:17:32;0.00;;;0.00;;
41761;SDS011;27441;50.860;0.258;2023-05-10T07:19:58;1.20;;;1.20;;
41761;SDS011;27441;50.860;0.258;2023-05-10T07:22:25;0.20;;;0.20;;
41761;SDS011;27441;50.860;0.258;2023-05-10T07:24:51;2.60;;;2.50;;
41761;SDS011;27441;50.860;0.258;2023-05-10T07:27:17;1.10;;;1.10;;
41761;SDS011;27441;50.860;0.258;2023-05-10T07:29:43;2.10;;;2.00;;
41761;SDS011;27441;50.860;0.258;2023-05-10T07:32:09;0.00;;;0.00;;
41761;SDS011;27441;50.860;0.258;2023-05-10T07:34:35;3.53;;;3.20;;
41761;SDS011;27441;50.860;0.258;2023-05-10T07:37:01;0.00;;;0.00;;
41761;SDS011;27441;50.860;0.258;2023-05-10T07:39:27;0.00;;;0.00;;
41761;SDS011;27441;50.860;0.258;2023-05-10T07:41:54;0.20;;;0.20;;
41761;SDS011;27441;50.860;0.258;2023-05-10T07:44:21;11.50;;;10.63;;
41761;SDS011;27441;50.860;0.258;2023-05-10T07:46:47;5.10;;;4.70;;
41761;SDS011;27441;50.860;0.258;2023-05-10T07:54:05;0.00;;;0.00;;
41761;SDS011;27441;50.860;0.258;2023-05-10T07:56:31;0.10;;;0.10;;
41761;SDS011;27441;50.860;0.258;2023-05-10T07:58:58;0.00;;;0.00;;
41761;SDS011;27441;50.860;0.258;2023-05-10T08:01:25;0.80;;;0.80;;
41761;SDS011;27441;50.860;0.258;2023-05-10T08:03:51;0.20;;;0.20;;
41761;SDS011;27441;50.860;0.258;2023-05-10T08:06:18;0.30;;;0.30;;
41761;SDS011;27441;50.860;0.258;2023-05-10T08:08:48;1.02;;;1.02;;
41761;SDS011;27441;50.860;0.258;2023-05-10T08:11:18;0.60;;;0.40;;
41761;SDS011;27441;50.860;0.258;2023-05-10T08:13:45;0.10;;;0.10;;
41761;SDS011;27441;50.860;0.258;2023-05-10T08:16:11;0.32;;;0.32;;
41761;SDS011;27441;50.860;0.258;2023-05-10T08:18:38;0.20;;;0.20;;
41761;SDS011;27441;50.860;0.258;2023-05-10T08:21:04;0.20;;;0.20;;
41761;SDS011;27441;50.860;0.258;2023-05-10T08:23:30;0.20;;;0.20;;
41761;SDS011;27441;50.860;0.258;2023-05-10T08:25:56;0.30;;;0.30;;
41761;SDS011;27441;50.860;0.258;2023-05-10T08:28:23;0.60;;;0.60;;
41761;SDS011;27441;50.860;0.258;2023-05-10T08:30:52;0.35;;;0.35;;
41761;SDS011;27441;50.860;0.258;2023-05-10T08:33:18;0.90;;;0.90;;
41761;SDS011;27441;50.860;0.258;2023-05-10T08:35:44;2.42;;;2.33;;
41761;SDS011;27441;50.860;0.258;2023-05-10T08:38:10;3.15;;;2.92;;
41761;SDS011;27441;50.860;0.258;2023-05-10T08:40:37;2.10;;;2.00;;
41761;SDS011;27441;50.860;0.258;2023-05-10T08:43:04;1.30;;;1.30;;
41761;SDS011;27441;50.860;0.258;2023-05-10T08:45:33;2.38;;;2.28;;
41761;SDS011;27441;50.860;0.258;2023-05-10T08:48:02;1.17;;;1.17;;
41761;SDS011;27441;50.860;0.258;2023-05-10T09:02:39;4.43;;;4.15;;
41761;SDS011;27441;50.860;0.258;2023-05-10T09:05:06;6.22;;;5.65;;
41761;SDS011;27441;50.860;0.258;2023-05-10T09:07:32;1.10;;;1.10;;
41761;SDS011;27441;50.860;0.258;2023-05-10T09:09:59;2.38;;;2.28;;
41761;SDS011;27441;50.860;0.258;2023-05-10T09:12:25;0.90;;;0.90;;
41761;SDS011;27441;50.860;0.258;2023-05-10T09:14:51;49.35;;;42.17;;
41761;SDS011;27441;50.860;0.258;2023-05-10T09:17:17;24.98;;;19.27;;
41761;SDS011;27441;50.860;0.258;2023-05-10T09:19:44;29.02;;;23.30;;
41761;SDS011;27441;50.860;0.258;2023-05-10T09:22:10;27.92;;;21.27;;
41761;SDS011;27441;50.860;0.258;2023-05-10T09:24:36;28.10;;;20.38;;
41761;SDS011;27441;50.860;0.258;2023-05-10T09:27:07;36.35;;;32.40;;
41761;SDS011;27441;50.860;0.258;2023-05-10T09:29:39;73.07;;;58.33;;
41761;SDS011;27441;50.860;0.258;2023-05-10T09:32:05;97.47;;;80.80;;
41761;SDS011;27441;50.860;0.258;2023-05-10T09:34:32;50.13;;;43.53;;
41761;SDS011;27441;50.860;0.258;2023-05-10T09:37:01;31.27;;;23.83;;
41761;SDS011;27441;50.860;0.258;2023-05-10T09:39:33;38.22;;;32.83;;
41761;SDS011;27441;50.860;0.258;2023-05-10T09:41:59;59.63;;;48.70;;
41761;SDS011;27441;50.860;0.258;2023-05-10T09:44:28;38.53;;;32.05;;
41761;SDS011;27441;50.860;0.258;2023-05-10T09:46:54;40.90;;;32.93;;
41761;SDS011;27441;50.860;0.258;2023-05-10T09:49:21;39.80;;;34.42;;
41761;SDS011;27441;50.860;0.258;2023-05-10T09:51:47;33.22;;;25.73;;
41761;SDS011;27441;50.860;0.258;2023-05-10T09:54:16;36.00;;;28.77;;
41761;SDS011;27441;50.860;0.258;2023-05-10T09:56:42;32.97;;;26.33;;
41761;SDS011;27441;50.860;0.258;2023-05-10T09:59:11;35.08;;;30.98;;
41761;SDS011;27441;50.860;0.258;2023-05-10T10:01:38;26.95;;;21.35;;
41761;SDS011;27441;50.860;0.258;2023-05-10T10:04:06;29.95;;;25.17;;
41761;SDS011;27441;50.860;0.258;2023-05-10T10:06:36;25.85;;;20.42;;
41761;SDS011;27441;50.860;0.258;2023-05-10T10:09:02;32.00;;;28.23;;
41761;SDS011;27441;50.860;0.258;2023-05-10T10:11:28;25.75;;;20.85;;
41761;SDS011;27441;50.860;0.258;2023-05-10T10:13:54;23.25;;;17.65;;
41761;SDS011;27441;50.860;0.258;2023-05-10T10:16:20;35.08;;;31.30;;
41761;SDS011;27441;50.860;0.258;2023-05-10T10:18:47;24.80;;;19.83;;
41761;SDS011;27441;50.860;0.258;2023-05-10T10:21:13;22.92;;;18.23;;
41761;SDS011;27441;50.860;0.258;2023-05-10T10:23:40;19.73;;;15.95;;
41761;SDS011;27441;50.860;0.258;2023-05-10T10:26:06;21.92;;;18.58;;
41761;SDS011;27441;50.860;0.258;2023-05-10T10:28:41;21.58;;;17.48;;
41761;SDS011;27441;50.860;0.258;2023-05-10T10:31:20;28.77;;;24.25;;
41761;SDS011;27441;50.860;0.258;2023-05-10T10:36:14;25.70;;;20.73;;
41761;SDS011;27441;50.860;0.258;2023-05-10T10:47:01;34.63;;;30.92;;
41761;SDS011;27441;50.860;0.258;2023-05-10T10:49:27;59.70;;;54.03;;
41761;SDS011;27441;50.860;0.258;2023-05-10T10:52:20;23.73;;;18.95;;
41761;SDS011;27441;50.860;0.258;2023-05-10T10:54:51;75.05;;;67.65;;
41761;SDS011;27441;50.860;0.258;2023-05-10T10:57:17;199.55;;;178.48;;
41761;SDS011;27441;50.860;0.258;2023-05-10T10:59:44;54.42;;;49.08;;
41761;SDS011;27441;50.860;0.258;2023-05-10T11:03:12;54.15;;;48.75;;
41761;SDS011;27441;50.860;0.258;2023-05-10T11:07:58;23.58;;;21.27;;
41761;SDS011;27441;50.860;0.258;2023-05-10T11:10:25;4.43;;;4.18;;
41761;SDS011;27441;50.860;0.258;2023-05-10T11:15:29;3.92;;;3.63;;
41761;SDS011;27441;50.860;0.258;2023-05-10T11:17:55;13.52;;;12.32;;
41761;SDS011;27441;50.860;0.258;2023-05-10T11:20:21;23.55;;;21.42;;
41761;SDS011;27441;50.860;0.258;2023-05-10T11:22:52;17.35;;;15.98;;
41761;SDS011;27441;50.860;0.258;2023-05-10T11:25:19;20.00;;;18.33;;
41761;SDS011;27441;50.860;0.258;2023-05-10T11:27:47;12.52;;;11.45;;
41761;SDS011;27441;50.860;0.258;2023-05-10T11:30:13;5.65;;;5.22;;
41761;SDS011;27441;50.860;0.258;2023-05-10T11:32:40;9.45;;;8.85;;
41761;SDS011;27441;50.860;0.258;2023-05-10T11:35:07;2.00;;;1.90;;
41761;SDS011;27441;50.860;0.258;2023-05-10T11:37:33;0.80;;;0.80;;
41761;SDS011;27441;50.860;0.258;2023-05-10T11:39:59;0.50;;;0.50;;
41761;SDS011;27441;50.860;0.258;2023-05-10T11:42:27;1.20;;;1.20;;
41761;SDS011;27441;50.860;0.258;2023-05-10T11:44:53;3.55;;;3.35;;
41761;SDS011;27441;50.860;0.258;2023-05-10T11:47:20;0.50;;;0.50;;
41761;SDS011;27441;50.860;0.258;2023-05-10T11:49:46;22.35;;;20.33;;
41761;SDS011;27441;50.860;0.258;2023-05-10T11:52:12;4.03;;;3.72;;
41761;SDS011;27441;50.860;0.258;2023-05-10T11:54:45;9.73;;;9.00;;
41761;SDS011;27441;50.860;0.258;2023-05-10T11:57:17;9.55;;;8.88;;
41761;SDS011;27441;50.860;0.258;2023-05-10T11:59:43;17.20;;;15.30;;
41761;SDS011;27441;50.860;0.258;2023-05-10T12:02:10;9.07;;;8.43;;
41761;SDS011;27441;50.860;0.258;2023-05-10T12:04:37;57.90;;;52.25;;
41761;SDS011;27441;50.860;0.258;2023-05-10T12:07:03;14.00;;;12.80;;
41761;SDS011;27441;50.860;0.258;2023-05-10T12:09:29;10.13;;;9.43;;
41761;SDS011;27441;50.860;0.258;2023-05-10T12:11:55;38.90;;;35.30;;
41761;SDS011;27441;50.860;0.258;2023-05-10T12:14:25;31.33;;;28.45;;
41761;SDS011;27441;50.860;0.258;2023-05-10T12:16:51;23.10;;;20.85;;
41761;SDS011;27441;50.860;0.258;2023-05-10T12:19:18;19.88;;;18.13;;
41761;SDS011;27441;50.860;0.258;2023-05-10T12:21:46;3.38;;;3.17;;
41761;SDS011;27441;50.860;0.258;2023-05-10T12:24:12;17.83;;;16.20;;
41761;SDS011;27441;50.860;0.258;2023-05-10T12:26:41;7.83;;;5.47;;
41761;SDS011;27441;50.860;0.258;2023-05-10T12:29:19;6.10;;;5.70;;
41761;SDS011;27441;50.860;0.258;2023-05-10T12:31:56;26.23;;;23.83;;
41761;SDS011;27441;50.860;0.258;2023-05-10T12:34:26;15.68;;;14.32;;
41761;SDS011;27441;50.860;0.258;2023-05-10T12:36:52;16.25;;;14.70;;
41761;SDS011;27441;50.860;0.258;2023-05-10T12:39:19;22.80;;;20.75;;
41761;SDS011;27441;50.860;0.258;2023-05-10T12:41:45;67.90;;;61.50;;
41761;SDS011;27441;50.860;0.258;2023-05-10T12:44:11;21.10;;;19.35;;
41761;SDS011;27441;50.860;0.258;2023-05-10T12:46:37;12.73;;;11.70;;
41761;SDS011;27441;50.860;0.258;2023-05-10T12:49:03;59.83;;;27.00;;
41761;SDS011;27441;50.860;0.258;2023-05-10T12:51:29;4.95;;;4.55;;
41761;SDS011;27441;50.860;0.258;2023-05-10T12:53:56;39.00;;;35.53;;
41761;SDS011;27441;50.860;0.258;2023-05-10T12:56:22;40.17;;;37.00;;
41761;SDS011;27441;50.860;0.258;2023-05-10T12:58:48;36.25;;;33.45;;
41761;SDS011;27441;50.860;0.258;2023-05-10T13:01:14;68.93;;;33.38;;
41761;SDS011;27441;50.860;0.258;2023-05-10T13:03:40;6.47;;;5.95;;
41761;SDS011;27441;50.860;0.258;2023-05-10T13:06:08;5.90;;;5.47;;
41761;SDS011;27441;50.860;0.258;2023-05-10T13:08:34;7.47;;;6.88;;
41761;SDS011;27441;50.860;0.258;2023-05-10T13:11:00;4.05;;;3.83;;
41761;SDS011;27441;50.860;0.258;2023-05-10T13:13:26;7.40;;;6.77;;
41761;SDS011;27441;50.860;0.258;2023-05-10T13:15:52;2.60;;;2.50;;
41761;SDS011;27441;50.860;0.258;2023-05-10T13:18:18;6.50;;;6.00;;
41761;SDS011;27441;50.860;0.258;2023-05-10T13:20:45;5.97;;;5.53;;
41761;SDS011;27441;50.860;0.258;2023-05-10T13:23:11;6.30;;;5.90;;
41761;SDS011;27441;50.860;0.258;2023-05-10T13:25:37;5.40;;;4.95;;
41761;SDS011;27441;50.860;0.258;2023-05-10T13:28:04;5.32;;;4.97;;
41761;SDS011;27441;50.860;0.258;2023-05-10T13:30:30;9.23;;;8.52;;
41761;SDS011;27441;50.860;0.258;2023-05-10T13:32:56;5.50;;;5.20;;
41761;SDS011;27441;50.860;0.258;2023-05-10T13:35:22;6.00;;;5.60;;
41761;SDS011;27441;50.860;0.258;2023-05-10T13:37:48;2.00;;;1.90;;
41761;SDS011;27441;50.860;0.258;2023-05-10T13:42:40;2.17;;;2.08;;
41761;SDS011;27441;50.860;0.258;2023-05-10T13:45:07;1.30;;;1.27;;
41761;SDS011;27441;50.860;0.258;2023-05-10T13:49:59;0.00;;;0.00;;
41761;SDS011;27441;50.860;0.258;2023-05-10T13:52:26;0.93;;;0.60;;
41761;SDS011;27441;50.860;0.258;2023-05-10T13:54:52;0.50;;;0.50;;
41761;SDS011;27441;50.860;0.258;2023-05-10T13:57:20;6.93;;;5.10;;
41761;SDS011;27441;50.860;0.258;2023-05-10T13:59:46;0.22;;;0.22;;
41761;SDS011;27441;50.860;0.258;2023-05-10T14:02:13;0.50;;;0.50;;
41761;SDS011;27441;50.860;0.258;2023-05-10T14:04:39;0.10;;;0.10;;
41761;SDS011;27441;50.860;0.258;2023-05-10T14:07:05;5.90;;;2.10;;
41761;SDS011;27441;50.860;0.258;2023-05-10T14:09:31;0.20;;;0.20;;
41761;SDS011;27441;50.860;0.258;2023-05-10T14:11:57;0.70;;;0.70;;
41761;SDS011;27441;50.860;0.258;2023-05-10T14:16:50;0.70;;;0.70;;
41761;SDS011;27441;50.860;0.258;2023-05-10T14:29:00;1.00;;;1.00;;
41761;SDS011;27441;50.860;0.258;2023-05-10T14:41:14;62.43;;;56.63;;
41761;SDS011;27441;50.860;0.258;2023-05-10T14:43:42;50.15;;;45.53;;
41761;SDS011;27441;50.860;0.258;2023-05-10T14:46:08;25.50;;;20.77;;
41761;SDS011;27441;50.860;0.258;2023-05-10T14:48:35;37.87;;;34.47;;
41761;SDS011;27441;50.860;0.258;2023-05-10T14:51:01;27.25;;;13.05;;
41761;SDS011;27441;50.860;0.258;2023-05-10T14:53:27;51.03;;;46.13;;
41761;SDS011;27441;50.860;0.258;2023-05-10T14:55:53;54.35;;;49.30;;
41761;SDS011;27441;50.860;0.258;2023-05-10T14:58:19;29.23;;;26.63;;
41761;SDS011;27441;50.860;0.258;2023-05-10T15:00:45;16.13;;;14.68;;
41761;SDS011;27441;50.860;0.258;2023-05-10T15:03:11;5.27;;;4.93;;
41761;SDS011;27441;50.860;0.258;2023-05-10T15:05:38;23.40;;;21.48;;
41761;SDS011;27441;50.860;0.258;2023-05-10T15:08:04;5.32;;;4.90;;
41761;SDS011;27441;50.860;0.258;2023-05-10T15:10:31;16.83;;;15.32;;
41761;SDS011;27441;50.860;0.258;2023-05-10T15:12:58;6.75;;;6.20;;
41761;SDS011;27441;50.860;0.258;2023-05-10T15:15:24;8.63;;;8.00;;
41761;SDS011;27441;50.860;0.258;2023-05-10T15:17:50;4.05;;;3.85;;
41761;SDS011;27441;50.860;0.258;2023-05-10T15:20:16;4.57;;;4.27;;
41761;SDS011;27441;50.860;0.258;2023-05-10T15:22:43;4.43;;;4.13;;
41761;SDS011;27441;50.860;0.258;2023-05-10T15:25:09;0.65;;;0.65;;
41761;SDS011;27441;50.860;0.258;2023-05-10T15:27:35;42.53;;;39.20;;
41761;SDS011;27441;50.860;0.258;2023-05-10T15:32:27;0.10;;;0.10;;
41761;SDS011;27441;50.860;0.258;2023-05-10T15:37:23;7.20;;;6.65;;
41761;SDS011;27441;50.860;0.258;2023-05-10T15:39:49;0.90;;;0.90;;
41761;SDS011;27441;50.860;0.258;2023-05-10T15:42:15;1.75;;;1.65;;
41761;SDS011;27441;50.860;0.258;2023-05-10T15:44:41;0.35;;;0.35;;
41761;SDS011;27441;50.860;0.258;2023-05-10T15:47:09;5.40;;;5.05;;
41761;SDS011;27441;50.860;0.258;2023-05-10T15:52:01;0.88;;;0.68;;
41761;SDS011;27441;50.860;0.258;2023-05-10T15:54:27;0.32;;;0.32;;
41761;SDS011;27441;50.860;0.258;2023-05-10T15:56:53;23.03;;;21.33;;
41761;SDS011;27441;50.860;0.258;2023-05-10T15:59:20;0.73;;;0.73;;
41761;SDS011;27441;50.860;0.258;2023-05-10T16:04:12;1.20;;;1.20;;
41761;SDS011;27441;50.860;0.258;2023-05-10T16:06:38;0.35;;;0.35;;
41761;SDS011;27441;50.860;0.258;2023-05-10T16:09:05;2.00;;;1.95;;
41761;SDS011;27441;50.860;0.258;2023-05-10T16:11:31;1.60;;;1.50;;
41761;SDS011;27441;50.860;0.258;2023-05-10T16:13:57;4.40;;;4.10;;
41761;SDS011;27441;50.860;0.258;2023-05-10T16:16:24;3.95;;;3.75;;
41761;SDS011;27441;50.860;0.258;2023-05-10T16:21:16;2.60;;;2.45;;
41761;SDS011;27441;50.860;0.258;2023-05-10T16:31:03;33.00;;;29.90;;
41761;SDS011;27441;50.860;0.258;2023-05-10T16:33:30;28.58;;;20.60;;